This is the latest recevied weather packets stored in our database for station/object KC5TIL-3. If no packets are shown the sender has not sent any weather packets the latest 10 day(s).
| Time | Temp. | Humidity | Pressure | Rain* | Wind** | Luminosity | Snow |
|---|---|---|---|---|---|---|---|
| 1788035718 | 37.78° C | 10% | 1012.8 hPa | 0 mm | 3.13 m/s, 210° | - | - |
| 1788035420 | 37.78° C | 10% | 1012.8 hPa | 0 mm | 0 m/s | - | - |
| 1788035114 | 37.22° C | 10% | 1012.8 hPa | 0 mm | 3.13 m/s, 127° | - | - |
| 1788034816 | 37.22° C | 10% | 1012.8 hPa | 0 mm | 2.68 m/s, 170° | - | - |
| 1788034513 | 37.22° C | 10% | 1012.8 hPa | 0 mm | 4.92 m/s, 116° | - | - |
| 1788034212 | 37.78° C | 10% | 1012.8 hPa | 0 mm | 3.58 m/s, 127° | - | - |
| 1788033913 | 37.78° C | 10% | 1012.8 hPa | 0 mm | 2.24 m/s, 150° | - | - |
| 1788033615 | 37.22° C | 10% | 1012.8 hPa | 0 mm | 1.79 m/s, 233° | - | - |
| 1788033314 | 37.22° C | 10% | 1012.8 hPa | 0 mm | 1.79 m/s, 209° | - | - |
| 1788033016 | 36.67° C | 13% | 1012.8 hPa | 0 mm | 4.47 m/s, 127° | - | - |
| 1788032717 | 37.22° C | 10% | 1012.8 hPa | 0 mm | 1.79 m/s, 143° | - | - |
| 1788032416 | 37.22° C | 10% | 1012.8 hPa | 0 mm | 1.79 m/s, 115° | - | - |
| 1788032113 | 36.11° C | 13% | 1012.8 hPa | 0 mm | 5.81 m/s, 112° | - | - |
| 1788031810 | 36.11° C | 13% | 1013.8 hPa | 0 mm | 5.36 m/s, 164° | - | - |
| 1788031508 | 37.22° C | 13% | 1013.8 hPa | 0 mm | 4.02 m/s, 128° | - | - |
| 1788031210 | 37.78° C | 12% | 1013.8 hPa | 0 mm | 1.79 m/s, 195° | - | - |
| 1788030912 | 37.22° C | 13% | 1013.8 hPa | 0 mm | 3.13 m/s, 197° | - | - |
| 1788030611 | 36.11° C | 13% | 1013.8 hPa | 0 mm | 3.13 m/s, 219° | - | - |
| 1788030312 | 37.22° C | 13% | 1013.8 hPa | 0 mm | 2.24 m/s, 173° | - | - |
| 1788030014 | 37.22° C | 13% | 1013.8 hPa | 0 mm | 1.34 m/s, 113° | - | - |
| 1788029713 | 36.67° C | 13% | 1013.8 hPa | 0 mm | 2.68 m/s, 215° | - | - |
| 1788029410 | 36.67° C | 13% | 1013.8 hPa | 0 mm | 2.68 m/s, 222° | - | - |
| 1788029112 | 37.22° C | 13% | 1013.8 hPa | 0 mm | 2.24 m/s, 217° | - | - |
| 1788028806 | 36.11° C | 13% | 1013.8 hPa | 0 mm | 1.79 m/s, 212° | - | - |
| 1788028507 | 36.11° C | 13% | 1013.8 hPa | 0 mm | 4.92 m/s, 130° | - | - |
* Rain latest hour (hover to see other rain measurements)
** Current wind speed in m/s (hover to see current wind gust speed)